Time;durP1;ratioP1;P1;durP2;ratioP2;P2;SDS_P1;SDS_P2;PMS_P1;PMS_P2;Temp;Humidity;BMP_temperature;BMP_pressure;BME280_temperature;BME280_humidity;BME280_pressure;Samples;Min_cycle;Max_cycle;Signal;HPM_P1;HPM_P2
2023/07/29 00:00:22;;;;;;;3.20;2.20;;;18.60;98.00;;;;;;5034552;28;20541;-73
2023/07/29 00:02:49;;;;;;;4.40;2.30;;;18.40;98.00;;;;;;5034602;28;20462;-72
2023/07/29 00:05:16;;;;;;;2.23;1.90;;;18.40;98.00;;;;;;5034545;28;20942;-73
2023/07/29 00:07:43;;;;;;;2.90;2.07;;;18.30;98.00;;;;;;5034569;28;20454;-73
2023/07/29 00:10:11;;;;;;;5.40;2.00;;;18.30;98.00;;;;;;5034470;28;20474;-72
2023/07/29 00:12:38;;;;;;;2.87;2.10;;;18.20;98.00;;;;;;5034766;28;20462;-72
2023/07/29 00:15:07;;;;;;;2.23;1.87;;;18.20;98.00;;;;;;5034706;28;20482;-72
2023/07/29 00:17:35;;;;;;;2.63;1.93;;;18.20;98.00;;;;;;5034786;28;20477;-73
2023/07/29 00:20:03;;;;;;;3.03;2.00;;;18.10;98.00;;;;;;5034432;28;20831;-72
2023/07/29 00:22:30;;;;;;;3.70;2.03;;;18.10;98.00;;;;;;5034400;28;20570;-72
2023/07/29 00:24:59;;;;;;;1.97;1.90;;;18.00;98.00;;;;;;5034284;28;20465;-72
2023/07/29 00:27:26;;;;;;;5.43;1.90;;;17.90;98.00;;;;;;5033841;28;20470;-72
2023/07/29 00:29:53;;;;;;;2.50;1.80;;;17.90;98.00;;;;;;5034068;28;20455;-72
2023/07/29 00:32:21;;;;;;;2.77;2.10;;;18.00;98.00;;;;;;5034021;28;20450;-72
2023/07/29 00:34:49;;;;;;;2.20;1.83;;;18.00;98.00;;;;;;5033929;28;20486;-72
2023/07/29 00:37:16;;;;;;;1.60;1.43;;;18.10;98.00;;;;;;5032788;28;20459;-72
2023/07/29 00:39:43;;;;;;;3.40;2.30;;;18.30;98.00;;;;;;5034090;28;20458;-72
2023/07/29 00:42:10;;;;;;;2.20;2.03;;;18.40;98.00;;;;;;5033776;28;20541;-72
2023/07/29 00:44:37;;;;;;;2.73;2.07;;;18.40;98.00;;;;;;5033707;28;20524;-72
2023/07/29 00:47:06;;;;;;;1.70;1.67;;;18.50;98.00;;;;;;5033773;28;20477;-73
2023/07/29 00:49:34;;;;;;;2.30;1.80;;;18.40;98.00;;;;;;5033776;28;20455;-72
2023/07/29 00:52:02;;;;;;;2.10;1.77;;;18.30;98.00;;;;;;5033891;28;20459;-72
2023/07/29 00:54:29;;;;;;;3.10;2.17;;;18.30;98.00;;;;;;5033512;28;20849;-72
2023/07/29 00:57:14;;;;;;;3.03;2.03;;;18.30;98.00;;;;;;5033838;28;20517;-72
2023/07/29 00:59:41;;;;;;;8.50;2.10;;;18.20;98.00;;;;;;5033003;28;20481;-73
2023/07/29 01:02:09;;;;;;;4.20;2.23;;;18.30;98.00;;;;;;5033425;28;20459;-72
2023/07/29 01:04:38;;;;;;;3.30;2.13;;;18.20;98.00;;;;;;5033564;28;20471;-73
2023/07/29 01:07:19;;;;;;;2.83;2.00;;;18.10;98.00;;;;;;5032859;28;20881;-72
2023/07/29 01:09:57;;;;;;;2.87;2.10;;;18.20;98.00;;;;;;5033305;28;20459;-72
2023/07/29 01:12:32;;;;;;;4.20;2.70;;;18.20;98.00;;;;;;5033721;28;20476;-72
2023/07/29 01:15:06;;;;;;;2.53;2.20;;;18.20;98.00;;;;;;5033660;28;20861;-72
2023/07/29 01:17:38;;;;;;;5.10;2.37;;;18.20;98.00;;;;;;5033745;28;20458;-72
2023/07/29 01:20:10;;;;;;;2.10;1.90;;;18.20;98.00;;;;;;5034808;28;20462;-72
2023/07/29 01:22:39;;;;;;;3.03;2.00;;;18.30;98.00;;;;;;5032862;28;20485;-73
2023/07/29 01:25:08;;;;;;;3.77;2.67;;;18.30;98.00;;;;;;5033133;28;20454;-72
2023/07/29 01:27:35;;;;;;;3.70;2.30;;;18.20;98.00;;;;;;5016562;28;20456;-73
2023/07/29 01:30:03;;;;;;;4.37;2.83;;;18.30;98.00;;;;;;5013427;28;20459;-73
2023/07/29 01:32:39;;;;;;;3.53;2.57;;;18.20;98.00;;;;;;5013188;28;20460;-72
2023/07/29 01:35:14;;;;;;;3.93;2.40;;;18.20;98.00;;;;;;5013041;28;20992;-72
2023/07/29 01:37:44;;;;;;;4.50;2.50;;;18.10;98.00;;;;;;5012964;28;20510;-72
2023/07/29 01:40:13;;;;;;;3.70;2.47;;;18.10;98.00;;;;;;5013146;28;20835;-72
2023/07/29 01:42:43;;;;;;;3.53;2.40;;;18.20;98.00;;;;;;5012887;28;20458;-73
2023/07/29 01:45:10;;;;;;;4.53;2.97;;;18.20;98.00;;;;;;5013157;28;20455;-72
2023/07/29 01:47:40;;;;;;;3.83;2.50;;;18.10;98.00;;;;;;5012938;28;20946;-72
2023/07/29 01:50:08;;;;;;;3.80;2.50;;;18.00;98.00;;;;;;5013270;28;20464;-73
2023/07/29 01:52:35;;;;;;;3.90;2.53;;;18.00;98.00;;;;;;5012766;28;20957;-73
2023/07/29 01:55:02;;;;;;;3.27;2.37;;;18.00;98.00;;;;;;5012842;28;20487;-72
2023/07/29 01:57:31;;;;;;;2.20;2.00;;;18.10;98.00;;;;;;5013031;28;20886;-72
2023/07/29 01:59:58;;;;;;;2.93;2.03;;;18.10;98.00;;;;;;5012742;28;20467;-72
2023/07/29 02:02:25;;;;;;;2.63;2.10;;;18.10;98.00;;;;;;5012336;28;20505;-73
2023/07/29 02:04:55;;;;;;;2.50;2.03;;;18.10;98.00;;;;;;5012827;28;20467;-72
2023/07/29 02:07:23;;;;;;;6.00;2.27;;;18.10;98.00;;;;;;5012946;28;20949;-72
2023/07/29 02:09:50;;;;;;;2.83;2.10;;;18.10;98.00;;;;;;5012754;28;20456;-72
2023/07/29 02:12:17;;;;;;;2.60;1.97;;;18.00;98.00;;;;;;5012585;28;20459;-72
2023/07/29 02:14:45;;;;;;;2.77;2.40;;;18.00;98.00;;;;;;5012443;28;20487;-72
2023/07/29 02:17:12;;;;;;;4.00;2.40;;;18.00;98.00;;;;;;5011783;28;20458;-72
2023/07/29 02:19:39;;;;;;;5.20;3.00;;;18.00;98.00;;;;;;5012292;28;20953;-73
2023/07/29 02:22:06;;;;;;;2.93;2.20;;;18.00;98.00;;;;;;5012148;28;20463;-72
2023/07/29 02:24:33;;;;;;;2.80;2.10;;;18.00;98.00;;;;;;5012389;28;20892;-72
2023/07/29 02:27:00;;;;;;;2.43;2.17;;;18.00;98.00;;;;;;5012086;28;20460;-72
2023/07/29 02:29:27;;;;;;;4.17;2.47;;;18.10;98.00;;;;;;5012088;28;20456;-72
2023/07/29 02:31:56;;;;;;;2.50;2.17;;;18.10;98.00;;;;;;5012101;28;20455;-72
2023/07/29 02:34:23;;;;;;;3.13;2.40;;;18.20;98.00;;;;;;5012140;28;20487;-72
2023/07/29 02:36:50;;;;;;;3.30;2.30;;;18.20;98.00;;;;;;5011783;28;20464;-73
2023/07/29 02:39:17;;;;;;;17.63;2.70;;;18.10;98.00;;;;;;5011922;28;20462;-72
2023/07/29 02:41:44;;;;;;;2.90;2.10;;;18.00;98.00;;;;;;5011919;28;20976;-72
2023/07/29 02:44:13;;;;;;;3.43;2.37;;;17.90;98.00;;;;;;5012047;28;20471;-73
2023/07/29 02:46:40;;;;;;;2.67;2.13;;;17.80;98.00;;;;;;5011519;28;20456;-72
2023/07/29 02:49:10;;;;;;;3.87;2.23;;;17.80;98.00;;;;;;5011975;28;20505;-73
2023/07/29 02:51:37;;;;;;;3.33;2.20;;;17.80;98.00;;;;;;5011702;28;20467;-72
2023/07/29 02:54:04;;;;;;;2.57;2.27;;;17.80;98.00;;;;;;5011715;28;20522;-73
2023/07/29 02:56:31;;;;;;;4.53;2.00;;;17.80;98.00;;;;;;5011728;28;20451;-72
2023/07/29 02:58:59;;;;;;;2.67;2.03;;;17.80;98.00;;;;;;5010655;28;20459;-72
2023/07/29 03:01:26;;;;;;;2.60;2.00;;;17.90;98.00;;;;;;5011561;28;21032;-72
2023/07/29 03:03:53;;;;;;;2.67;2.23;;;18.00;98.00;;;;;;5011880;28;20460;-72
2023/07/29 03:06:23;;;;;;;2.50;2.00;;;17.90;98.00;;;;;;5011803;28;20542;-72
2023/07/29 03:08:50;;;;;;;2.10;1.90;;;17.80;98.00;;;;;;5011867;28;20464;-72
2023/07/29 03:11:17;;;;;;;4.07;1.90;;;17.80;98.00;;;;;;5010512;28;20502;-72
2023/07/29 03:13:45;;;;;;;3.70;2.20;;;17.70;98.00;;;;;;5011533;28;20657;-73
2023/07/29 03:16:14;;;;;;;2.47;2.10;;;17.70;98.00;;;;;;5011770;28;20467;-73
2023/07/29 03:18:43;;;;;;;2.90;1.80;;;17.50;98.00;;;;;;5011536;28;20551;-72
2023/07/29 03:21:11;;;;;;;4.53;2.00;;;17.60;98.00;;;;;;5011439;28;20522;-72
2023/07/29 03:23:47;;;;;;;2.50;2.10;;;17.70;98.00;;;;;;5011415;28;20454;-72
2023/07/29 03:26:15;;;;;;;3.10;2.30;;;17.60;98.00;;;;;;5011732;28;20455;-72
2023/07/29 03:28:43;;;;;;;3.33;2.23;;;17.50;98.00;;;;;;5011193;28;20980;-72
2023/07/29 03:31:11;;;;;;;4.80;2.07;;;17.50;98.00;;;;;;5015367;28;20470;-72
2023/07/29 03:33:38;;;;;;;3.50;2.33;;;17.50;98.00;;;;;;5015251;28;20459;-72
2023/07/29 03:36:05;;;;;;;4.60;2.20;;;17.40;98.00;;;;;;5014440;28;20483;-72
2023/07/29 03:38:35;;;;;;;2.93;2.10;;;17.40;98.00;;;;;;5017425;28;20457;-72
2023/07/29 03:41:03;;;;;;;3.30;2.40;;;17.40;98.00;;;;;;5016661;28;20451;-73
2023/07/29 03:43:30;;;;;;;2.80;2.13;;;17.40;98.00;;;;;;5015201;28;20857;-73
2023/07/29 03:45:58;;;;;;;2.73;2.03;;;17.40;98.00;;;;;;5015245;28;20509;-72
2023/07/29 03:48:25;;;;;;;3.10;2.20;;;17.50;98.00;;;;;;5015190;28;20522;-72
2023/07/29 03:50:52;;;;;;;2.93;2.17;;;17.50;98.00;;;;;;5015220;28;20533;-72
2023/07/29 03:53:19;;;;;;;3.10;2.10;;;17.50;98.00;;;;;;5015278;28;20451;-72
2023/07/29 03:55:46;;;;;;;3.50;2.10;;;17.50;98.00;;;;;;5014070;28;20490;-73
2023/07/29 03:58:15;;;;;;;6.43;2.57;;;17.50;98.00;;;;;;5015155;28;20546;-72
2023/07/29 04:00:42;;;;;;;3.10;2.23;;;17.40;98.00;;;;;;5015073;28;20455;-72
2023/07/29 04:03:10;;;;;;;3.30;2.40;;;17.40;98.00;;;;;;5014981;28;20514;-72
2023/07/29 04:05:37;;;;;;;3.30;2.40;;;17.50;98.00;;;;;;5015058;28;20460;-72
2023/07/29 04:08:04;;;;;;;3.77;2.30;;;17.40;98.00;;;;;;5015109;28;20451;-72
2023/07/29 04:10:31;;;;;;;5.70;2.20;;;17.50;98.00;;;;;;5014730;28;20452;-73
2023/07/29 04:12:58;;;;;;;3.03;2.17;;;17.50;98.00;;;;;;5014711;28;20452;-72
2023/07/29 04:15:27;;;;;;;2.40;2.10;;;17.60;98.00;;;;;;5014498;28;20529;-72
2023/07/29 04:17:54;;;;;;;2.17;1.90;;;17.60;98.00;;;;;;5013258;28;20471;-72
2023/07/29 04:20:21;;;;;;;4.53;2.40;;;17.60;98.00;;;;;;5014751;28;20471;-73
2023/07/29 04:22:48;;;;;;;2.93;2.10;;;17.70;98.00;;;;;;5014555;28;20459;-72
2023/07/29 04:25:18;;;;;;;3.40;2.30;;;17.90;98.00;;;;;;5014620;28;20850;-73
2023/07/29 04:27:46;;;;;;;5.37;2.47;;;18.00;98.00;;;;;;5013051;28;20866;-72
2023/07/29 04:30:13;;;;;;;2.90;2.13;;;18.00;98.00;;;;;;5014589;28;20945;-71
2023/07/29 04:32:44;;;;;;;11.70;2.57;;;17.80;98.00;;;;;;5014171;28;20467;-72
2023/07/29 04:35:12;;;;;;;2.80;2.20;;;17.80;98.00;;;;;;5014374;28;20487;-71
2023/07/29 04:37:39;;;;;;;4.60;2.07;;;17.70;98.00;;;;;;5013037;28;20451;-72
2023/07/29 04:40:07;;;;;;;3.30;2.50;;;17.70;98.00;;;;;;5013136;28;20459;-73
2023/07/29 04:42:34;;;;;;;4.00;2.60;;;17.80;98.00;;;;;;5014170;28;20464;-73
2023/07/29 04:45:01;;;;;;;2.97;2.20;;;17.80;98.00;;;;;;5014178;28;20862;-73
2023/07/29 04:47:28;;;;;;;2.70;2.20;;;17.90;98.00;;;;;;5013984;28;20949;-72
2023/07/29 04:49:56;;;;;;;2.50;2.10;;;18.00;98.00;;;;;;5014400;28;20509;-72
2023/07/29 04:52:23;;;;;;;3.60;2.30;;;17.90;98.00;;;;;;5014194;28;20464;-73
2023/07/29 04:54:52;;;;;;;2.47;2.10;;;17.90;98.00;;;;;;5014104;28;20831;-72
2023/07/29 04:57:19;;;;;;;2.23;1.90;;;17.80;98.00;;;;;;5014425;28;20464;-73
2023/07/29 04:59:47;;;;;;;3.10;2.30;;;17.80;98.00;;;;;;5014234;28;20455;-73
2023/07/29 05:02:15;;;;;;;2.17;1.97;;;17.80;98.00;;;;;;5013121;28;20466;-72
2023/07/29 05:04:42;;;;;;;5.70;2.70;;;17.80;98.00;;;;;;5013771;28;20463;-72
2023/07/29 05:07:10;;;;;;;4.20;3.00;;;17.80;98.00;;;;;;5013892;28;20460;-72
2023/07/29 05:09:37;;;;;;;4.00;2.67;;;17.80;98.00;;;;;;5013836;28;20463;-72
2023/07/29 05:12:05;;;;;;;3.57;2.53;;;17.80;98.00;;;;;;5013962;28;20451;-71
2023/07/29 05:14:32;;;;;;;3.47;2.27;;;17.80;98.00;;;;;;5014579;28;20459;-72
2023/07/29 05:17:00;;;;;;;6.30;2.40;;;17.90;98.00;;;;;;5014777;28;20455;-72
2023/07/29 05:19:27;;;;;;;3.93;2.20;;;18.10;98.00;;;;;;5013689;28;20491;-72
2023/07/29 05:21:55;;;;;;;2.30;1.87;;;18.10;98.00;;;;;;5013836;28;20603;-72
2023/07/29 05:24:23;;;;;;;2.70;2.27;;;18.00;98.00;;;;;;5014456;28;20505;-72
2023/07/29 05:26:50;;;;;;;2.83;2.20;;;18.10;98.00;;;;;;5014106;28;20863;-72
2023/07/29 05:29:17;;;;;;;3.40;2.10;;;18.10;98.00;;;;;;5013421;28;20456;-72
2023/07/29 05:31:44;;;;;;;2.67;2.13;;;18.20;98.00;;;;;;5013418;28;20463;-72
2023/07/29 05:34:14;;;;;;;2.73;2.13;;;18.30;98.00;;;;;;5013233;28;20456;-71
2023/07/29 05:36:41;;;;;;;3.13;2.40;;;18.20;98.00;;;;;;5012940;28;20487;-72
2023/07/29 05:39:09;;;;;;;2.50;2.00;;;18.20;98.00;;;;;;5013188;28;20467;-73
2023/07/29 05:41:37;;;;;;;2.00;1.93;;;18.10;98.00;;;;;;5012111;28;20455;-72
2023/07/29 05:44:04;;;;;;;11.53;5.00;;;18.10;98.00;;;;;;5013111;28;20456;-72
2023/07/29 05:46:31;;;;;;;4.37;2.87;;;18.20;98.00;;;;;;5012978;28;20459;-72
2023/07/29 05:48:58;;;;;;;5.30;2.43;;;18.20;98.00;;;;;;5013118;28;20533;-72
2023/07/29 05:51:25;;;;;;;2.83;2.00;;;18.20;98.00;;;;;;5013044;28;20467;-72
2023/07/29 05:53:52;;;;;;;6.83;1.83;;;18.30;98.00;;;;;;5012674;28;20534;-72
2023/07/29 05:56:20;;;;;;;2.90;2.10;;;18.30;98.00;;;;;;5013001;28;20515;-72
2023/07/29 05:58:49;;;;;;;2.27;1.90;;;18.50;98.00;;;;;;5012862;28;20459;-72
2023/07/29 06:01:21;;;;;;;2.23;1.97;;;18.60;98.00;;;;;;5012833;28;20820;-72
2023/07/29 06:03:48;;;;;;;4.53;1.93;;;18.70;98.00;;;;;;5012605;28;20462;-72
2023/07/29 06:06:15;;;;;;;2.20;1.90;;;18.70;98.00;;;;;;5012841;28;20491;-72
2023/07/29 06:08:42;;;;;;;2.47;1.90;;;18.90;98.00;;;;;;5012462;28;20506;-72
2023/07/29 06:11:09;;;;;;;7.23;2.40;;;19.00;98.00;;;;;;5012713;28;20467;-67
2023/07/29 06:13:36;;;;;;;1.93;1.87;;;19.10;98.00;;;;;;5012467;28;20802;-66
2023/07/29 06:16:05;;;;;;;2.13;1.97;;;19.20;98.00;;;;;;5012472;28;20510;-66
2023/07/29 06:18:33;;;;;;;3.17;2.13;;;19.20;98.00;;;;;;5012409;28;20517;-66
2023/07/29 06:21:00;;;;;;;2.43;2.10;;;19.20;98.00;;;;;;5011090;28;20463;-67
2023/07/29 06:23:27;;;;;;;3.33;2.27;;;19.30;98.00;;;;;;5012263;28;20455;-66
2023/07/29 06:25:54;;;;;;;2.30;2.10;;;19.30;98.00;;;;;;5012429;28;20543;-66
2023/07/29 06:28:21;;;;;;;2.07;1.90;;;19.40;98.00;;;;;;5012749;28;20463;-67
2023/07/29 06:30:49;;;;;;;3.23;2.13;;;19.50;98.00;;;;;;5012213;28;20464;-67
2023/07/29 06:33:17;;;;;;;5.87;2.10;;;19.60;98.00;;;;;;5012098;28;20467;-67
2023/07/29 06:35:47;;;;;;;2.50;2.10;;;19.60;98.00;;;;;;5012119;28;20487;-67
2023/07/29 06:38:14;;;;;;;3.50;2.10;;;19.70;98.00;;;;;;5012037;28;20468;-67
2023/07/29 06:40:42;;;;;;;2.67;2.00;;;19.70;98.00;;;;;;5012053;28;20468;-66
2023/07/29 06:43:09;;;;;;;3.43;2.40;;;19.70;98.00;;;;;;5012123;28;20466;-67
2023/07/29 06:45:36;;;;;;;3.30;2.27;;;19.80;98.00;;;;;;5012038;28;20525;-66
2023/07/29 06:48:03;;;;;;;2.30;2.10;;;20.00;98.00;;;;;;5012082;28;20463;-67
2023/07/29 06:50:32;;;;;;;3.07;2.33;;;20.10;98.00;;;;;;5012205;28;20979;-67
2023/07/29 06:52:59;;;;;;;2.00;1.93;;;20.00;98.00;;;;;;5011834;28;20470;-67
2023/07/29 06:55:26;;;;;;;3.90;2.10;;;20.20;98.00;;;;;;5010592;28;20493;-67
2023/07/29 06:57:53;;;;;;;3.47;2.23;;;20.20;98.00;;;;;;5011549;28;20869;-66
2023/07/29 07:00:20;;;;;;;3.53;2.03;;;20.30;98.00;;;;;;4994267;28;20458;-67
2023/07/29 07:02:47;;;;;;;4.30;2.57;;;20.30;98.00;;;;;;5011777;28;20471;-67
2023/07/29 07:05:15;;;;;;;3.07;2.13;;;20.30;98.00;;;;;;5010876;28;20999;-67
2023/07/29 07:07:43;;;;;;;3.33;2.10;;;20.20;98.00;;;;;;5011426;28;20911;-67
2023/07/29 07:10:10;;;;;;;2.43;2.20;;;20.20;98.00;;;;;;5011704;28;20456;-66
2023/07/29 07:12:37;;;;;;;4.33;2.13;;;20.20;98.00;;;;;;5011299;28;20960;-66
2023/07/29 07:15:06;;;;;;;3.70;2.07;;;20.10;98.00;;;;;;5011487;28;20451;-67
2023/07/29 07:17:33;;;;;;;2.30;2.00;;;20.10;98.00;;;;;;5011403;28;20452;-67
2023/07/29 07:20:00;;;;;;;1.80;1.70;;;20.00;98.00;;;;;;5010314;28;20905;-67
2023/07/29 07:22:27;;;;;;;2.43;1.90;;;19.90;98.00;;;;;;5011172;28;20471;-66
2023/07/29 07:24:55;;;;;;;3.23;2.20;;;19.80;98.00;;;;;;5011728;28;20930;-67
2023/07/29 07:27:22;;;;;;;2.20;1.80;;;19.70;98.00;;;;;;5011196;28;20458;-66
2023/07/29 07:29:49;;;;;;;2.10;2.00;;;19.60;98.00;;;;;;5011544;28;20529;-67
2023/07/29 07:32:17;;;;;;;2.80;2.10;;;19.50;98.00;;;;;;5011311;28;20451;-67
2023/07/29 07:34:44;;;;;;;3.53;2.33;;;19.50;98.00;;;;;;5022446;28;20452;-67
2023/07/29 07:37:11;;;;;;;2.97;2.00;;;19.40;98.00;;;;;;5030878;28;20489;-67
2023/07/29 07:39:38;;;;;;;4.13;2.37;;;19.40;98.00;;;;;;5030844;28;20466;-67
2023/07/29 07:42:07;;;;;;;3.80;2.13;;;19.40;98.00;;;;;;5031083;28;20469;-66
2023/07/29 07:44:34;;;;;;;2.40;1.90;;;19.30;98.00;;;;;;5024471;28;20655;-67
2023/07/29 07:47:01;;;;;;;3.80;2.33;;;19.30;98.00;;;;;;5011488;28;20459;-67
2023/07/29 07:49:28;;;;;;;3.00;1.70;;;19.40;98.00;;;;;;5011829;28;20451;-66
2023/07/29 07:51:56;;;;;;;1.70;1.60;;;19.30;98.00;;;;;;5010465;28;20942;-67
2023/07/29 07:54:23;;;;;;;1.60;1.43;;;19.40;98.00;;;;;;5009279;28;20475;-66
2023/07/29 07:56:50;;;;;;;1.47;1.40;;;19.40;98.00;;;;;;5010979;28;20483;-67
2023/07/29 07:59:19;;;;;;;1.30;1.30;;;19.50;98.00;;;;;;5010333;28;20467;-66
2023/07/29 08:01:46;;;;;;;2.03;1.50;;;19.60;98.00;;;;;;5010889;28;20459;-66
2023/07/29 08:04:14;;;;;;;1.67;1.50;;;19.70;98.00;;;;;;5010948;28;20550;-67
2023/07/29 08:06:41;;;;;;;3.07;1.50;;;19.80;98.00;;;;;;5010758;28;20487;-67
2023/07/29 08:09:08;;;;;;;1.40;1.40;;;19.80;98.00;;;;;;5010624;28;20470;-66
2023/07/29 08:11:35;;;;;;;1.50;1.50;;;19.90;98.00;;;;;;5011093;28;20451;-67
2023/07/29 08:14:03;;;;;;;3.40;1.67;;;19.90;98.00;;;;;;5009463;28;20464;-67
2023/07/29 08:16:31;;;;;;;1.87;1.77;;;19.80;98.00;;;;;;5013661;28;20845;-66
2023/07/29 08:18:58;;;;;;;2.37;1.77;;;19.90;98.00;;;;;;5014851;28;20534;-66
2023/07/29 08:21:25;;;;;;;1.57;1.53;;;19.90;98.00;;;;;;5014343;28;20517;-67
2023/07/29 08:23:52;;;;;;;2.87;1.90;;;20.00;98.00;;;;;;5013199;28;20459;-66
2023/07/29 08:26:27;;;;;;;2.00;1.70;;;20.00;98.00;;;;;;5013584;28;20463;-66
2023/07/29 08:28:54;;;;;;;2.43;1.90;;;20.00;98.00;;;;;;5014558;28;20453;-67
2023/07/29 08:31:21;;;;;;;2.03;1.83;;;20.10;98.00;;;;;;5014476;28;20885;-67
2023/07/29 08:33:50;;;;;;;2.83;2.27;;;20.10;98.00;;;;;;5014656;28;20467;-67
2023/07/29 08:36:17;;;;;;;2.07;1.70;;;20.20;98.00;;;;;;5014307;28;20479;-67
2023/07/29 08:38:44;;;;;;;2.20;1.90;;;20.20;98.00;;;;;;5014331;28;20825;-67
2023/07/29 08:41:15;;;;;;;2.67;2.00;;;20.30;98.00;;;;;;5014840;28;20490;-67
2023/07/29 08:43:51;;;;;;;2.27;2.00;;;20.40;98.00;;;;;;5014430;28;20498;-67
2023/07/29 08:46:19;;;;;;;2.67;2.17;;;20.60;98.00;;;;;;5014644;28;20458;-67
2023/07/29 08:48:48;;;;;;;2.57;2.17;;;20.80;98.00;;;;;;5014222;28;20455;-66
2023/07/29 08:51:16;;;;;;;4.17;2.03;;;21.00;98.00;;;;;;5014188;28;20466;-67
2023/07/29 08:53:44;;;;;;;2.90;2.00;;;21.20;98.00;;;;;;5014154;28;20546;-67
2023/07/29 08:56:11;;;;;;;2.40;2.13;;;21.50;98.00;;;;;;5012859;28;20491;-67
2023/07/29 08:58:40;;;;;;;3.23;1.97;;;21.60;98.00;;;;;;5013873;28;20456;-67
2023/07/29 09:01:07;;;;;;;2.93;2.00;;;21.50;98.00;;;;;;5013957;28;20819;-67
2023/07/29 09:03:34;;;;;;;3.97;2.17;;;21.60;98.00;;;;;;5014273;28;20472;-66
2023/07/29 09:06:07;;;;;;;3.63;2.00;;;21.70;98.00;;;;;;5013793;28;20463;-67
2023/07/29 09:08:35;;;;;;;2.00;1.90;;;22.00;98.00;;;;;;5013767;28;20643;-66
2023/07/29 09:11:02;;;;;;;3.50;2.33;;;22.10;98.00;;;;;;5013673;28;20505;-66
2023/07/29 09:13:30;;;;;;;2.47;2.17;;;22.20;98.00;;;;;;5013625;28;20514;-66
2023/07/29 09:15:58;;;;;;;3.70;2.60;;;22.30;98.00;;;;;;5013452;28;20509;-67
2023/07/29 09:18:28;;;;;;;3.07;2.33;;;22.30;98.00;;;;;;5013553;28;20513;-66
2023/07/29 09:20:59;;;;;;;2.50;2.13;;;22.40;98.00;;;;;;5013559;28;20471;-67
2023/07/29 09:23:28;;;;;;;2.77;2.20;;;22.70;98.00;;;;;;5013579;28;20462;-67
2023/07/29 09:26:02;;;;;;;2.00;1.93;;;23.00;98.00;;;;;;5012200;28;20491;-66
2023/07/29 09:28:34;;;;;;;2.73;2.30;;;23.20;98.00;;;;;;5012339;28;20809;-67
2023/07/29 09:31:01;;;;;;;2.73;2.20;;;23.30;98.00;;;;;;5013094;28;20969;-66
2023/07/29 09:33:29;;;;;;;3.20;2.40;;;23.30;98.00;;;;;;5013260;28;20550;-67
2023/07/29 09:35:56;;;;;;;5.03;2.40;;;23.20;98.00;;;;;;5013501;28;20946;-67
2023/07/29 09:38:29;;;;;;;3.10;2.20;;;23.10;98.00;;;;;;5013259;28;20467;-67
2023/07/29 09:40:57;;;;;;;2.73;2.13;;;23.10;98.00;;;;;;5013462;28;20459;-66
2023/07/29 09:43:29;;;;;;;2.80;2.20;;;23.00;98.00;;;;;;5012918;28;20519;-67
2023/07/29 09:46:00;;;;;;;5.00;2.20;;;23.10;98.00;;;;;;5013189;28;20463;-66
2023/07/29 09:48:28;;;;;;;2.77;2.10;;;23.10;98.00;;;;;;5013058;28;20518;-66
2023/07/29 09:50:58;;;;;;;4.70;2.20;;;23.20;98.00;;;;;;5012903;28;20470;-67
2023/07/29 09:53:25;;;;;;;2.60;2.30;;;23.20;98.00;;;;;;5011690;28;20766;-66
2023/07/29 09:55:54;;;;;;;2.33;2.00;;;23.40;98.00;;;;;;5012881;28;20826;-64
2023/07/29 09:58:28;;;;;;;2.50;2.13;;;23.70;98.00;;;;;;5012683;28;20459;-66
2023/07/29 10:00:55;;;;;;;2.40;1.80;;;23.90;98.00;;;;;;5012801;28;20514;-66
2023/07/29 10:03:23;;;;;;;2.77;2.30;;;24.00;98.00;;;;;;5012525;28;20842;-67
2023/07/29 10:05:51;;;;;;;2.80;2.10;;;24.10;98.00;;;;;;5012624;28;20875;-66
2023/07/29 10:08:22;;;;;;;3.17;2.40;;;24.20;98.00;;;;;;5012702;28;20530;-66
2023/07/29 10:10:51;;;;;;;2.97;2.10;;;24.40;98.00;;;;;;5012714;28;20466;-66
2023/07/29 10:13:20;;;;;;;2.30;2.00;;;24.30;98.00;;;;;;5012484;28;20978;-66
2023/07/29 10:15:49;;;;;;;2.67;2.10;;;24.50;98.00;;;;;;5012570;28;20456;-66
2023/07/29 10:18:16;;;;;;;3.37;2.27;;;24.50;98.00;;;;;;5012363;28;20487;-66
2023/07/29 10:20:45;;;;;;;2.73;2.03;;;24.70;98.00;;;;;;5002481;28;20524;-65
2023/07/29 10:23:13;;;;;;;2.93;2.10;;;24.90;98.00;;;;;;4992841;28;20460;-66
2023/07/29 10:25:47;;;;;;;4.03;2.40;;;25.00;98.00;;;;;;4992657;28;20475;-66
2023/07/29 10:28:18;;;;;;;3.33;2.37;;;25.00;98.00;;;;;;4992528;28;20448;-66
2023/07/29 10:30:47;;;;;;;3.20;2.50;;;25.40;98.00;;;;;;4992676;28;20882;-66
2023/07/29 10:33:15;;;;;;;3.30;2.53;;;25.60;98.00;;;;;;4992723;28;20471;-66
2023/07/29 10:35:43;;;;;;;3.07;2.50;;;25.90;98.00;;;;;;4992628;28;20970;-66
2023/07/29 10:38:11;;;;;;;4.30;2.40;;;26.00;98.00;;;;;;4992331;28;20492;-65
2023/07/29 10:40:49;;;;;;;3.33;2.33;;;26.10;98.00;;;;;;4992283;28;20461;-66
2023/07/29 10:43:24;;;;;;;3.13;2.13;;;25.90;98.00;;;;;;4992598;28;20460;-66
2023/07/29 10:45:53;;;;;;;3.40;2.53;;;25.90;98.00;;;;;;4991107;28;20971;-66
2023/07/29 10:48:43;;;;;;;2.10;1.70;;;25.80;98.00;;;;;;4992272;28;20969;-66
2023/07/29 10:51:30;;;;;;;1.70;1.60;;;25.60;98.00;;;;;;4992337;28;21009;-66
2023/07/29 10:53:59;;;;;;;1.93;1.80;;;25.10;98.00;;;;;;4992019;28;20491;-66
2023/07/29 10:56:31;;;;;;;1.43;1.43;;;24.90;98.00;;;;;;4992140;28;20460;-66
2023/07/29 10:59:03;;;;;;;1.63;1.50;;;24.90;98.00;;;;;;4992035;28;20456;-65
2023/07/29 11:01:33;;;;;;;1.80;1.73;;;24.90;98.00;;;;;;4991969;28;20460;-66
2023/07/29 11:04:24;;;;;;;2.03;1.60;;;24.60;98.00;;;;;;4992073;28;20456;-65
2023/07/29 11:07:27;;;;;;;4.23;1.77;;;24.10;98.00;;;;;;4992205;28;20978;-66
2023/07/29 11:10:03;;;;;;;2.00;1.70;;;23.80;98.00;;;;;;4991963;28;20523;-65
2023/07/29 11:12:45;;;;;;;2.30;1.70;;;23.50;98.00;;;;;;4991842;28;20954;-66
2023/07/29 11:15:20;;;;;;;2.30;2.00;;;23.70;98.00;;;;;;4992098;28;20546;-66
2023/07/29 11:17:50;;;;;;;2.03;1.60;;;24.00;98.00;;;;;;4991859;28;20483;-66
2023/07/29 11:20:18;;;;;;;2.23;1.70;;;24.30;98.00;;;;;;4991759;28;20484;-66
2023/07/29 11:22:45;;;;;;;2.30;1.80;;;24.50;98.00;;;;;;4990363;28;20452;-66
2023/07/29 11:25:14;;;;;;;1.60;1.50;;;24.70;98.00;;;;;;4991839;28;20457;-66
2023/07/29 11:27:41;;;;;;;2.10;1.67;;;24.80;98.00;;;;;;4992044;28;20539;-65
2023/07/29 11:30:10;;;;;;;3.00;2.00;;;24.70;98.00;;;;;;4992244;28;20772;-66
2023/07/29 11:32:38;;;;;;;2.07;1.50;;;24.70;98.00;;;;;;4991938;28;20488;-66
2023/07/29 11:35:10;;;;;;;2.23;1.97;;;24.80;98.00;;;;;;4991757;28;20463;-66
2023/07/29 11:37:38;;;;;;;2.30;1.63;;;24.80;98.00;;;;;;4991735;28;20492;-66
2023/07/29 11:40:08;;;;;;;3.60;2.17;;;24.90;98.00;;;;;;4991702;28;20499;-66
2023/07/29 11:42:38;;;;;;;2.53;1.90;;;24.90;98.00;;;;;;4991562;28;20452;-66
2023/07/29 11:45:07;;;;;;;2.90;2.00;;;24.90;98.00;;;;;;4991542;28;20559;-66
2023/07/29 11:47:36;;;;;;;2.20;1.77;;;25.10;98.00;;;;;;4991365;28;20460;-66
2023/07/29 11:50:06;;;;;;;2.90;2.00;;;25.30;98.00;;;;;;4990886;28;20551;-66
2023/07/29 11:52:34;;;;;;;2.23;1.90;;;25.40;98.00;;;;;;4995355;28;20462;-66
2023/07/29 11:55:03;;;;;;;3.00;2.00;;;25.40;98.00;;;;;;4995546;28;20511;-66
2023/07/29 11:57:30;;;;;;;2.30;1.90;;;25.30;98.00;;;;;;4995356;28;20488;-66
2023/07/29 11:59:58;;;;;;;2.93;1.93;;;25.20;98.00;;;;;;4995614;28;20456;-66
2023/07/29 12:02:26;;;;;;;7.23;1.93;;;25.20;98.00;;;;;;4995296;28;20464;-66
2023/07/29 12:04:54;;;;;;;2.20;1.93;;;25.20;98.00;;;;;;4995407;28;20487;-66
2023/07/29 12:07:22;;;;;;;2.00;1.80;;;25.60;98.00;;;;;;4995259;28;20464;-69
2023/07/29 12:09:51;;;;;;;1.70;1.70;;;26.00;98.00;;;;;;4995205;28;20825;-66
2023/07/29 12:12:18;;;;;;;2.17;1.90;;;26.40;98.00;;;;;;4995119;28;20499;-67
2023/07/29 12:14:47;;;;;;;2.00;1.80;;;26.90;98.00;;;;;;4994993;28;20871;-66
2023/07/29 12:17:14;;;;;;;4.10;2.10;;;27.40;98.00;;;;;;4995013;28;20515;-67
2023/07/29 12:19:43;;;;;;;2.50;2.10;;;27.40;98.00;;;;;;4995197;28;20452;-67
2023/07/29 12:22:11;;;;;;;2.50;1.97;;;27.40;98.00;;;;;;4995638;28;20468;-66
2023/07/29 12:24:41;;;;;;;2.10;2.00;;;27.90;98.00;;;;;;4994839;28;20460;-66
2023/07/29 12:27:13;;;;;;;2.20;1.97;;;28.20;98.00;;;;;;4995478;28;21016;-66
2023/07/29 12:29:46;;;;;;;2.30;2.00;;;28.40;98.00;;;;;;4994992;28;20503;-67
2023/07/29 12:32:13;;;;;;;2.60;2.00;;;28.70;98.00;;;;;;4994892;28;20464;-67
2023/07/29 12:34:41;;;;;;;2.40;2.00;;;29.10;98.00;;;;;;4994763;28;20468;-66
2023/07/29 12:37:08;;;;;;;2.60;2.03;;;29.50;98.00;;;;;;4994703;28;20487;-66
2023/07/29 12:39:36;;;;;;;2.50;1.90;;;29.70;98.00;;;;;;4994584;28;20453;-67
2023/07/29 12:42:05;;;;;;;2.03;1.93;;;29.80;98.00;;;;;;4995000;28;20460;-66
2023/07/29 12:44:34;;;;;;;3.20;1.93;;;29.70;98.00;;;;;;4994604;28;20460;-66
2023/07/29 12:47:03;;;;;;;2.70;1.93;;;29.90;98.00;;;;;;4994696;28;20467;-67
2023/07/29 12:49:31;;;;;;;2.80;2.13;;;30.00;98.00;;;;;;4994523;28;20468;-66
2023/07/29 12:51:58;;;;;;;2.10;1.90;;;29.50;98.00;;;;;;4994463;28;20518;-67